Time;durP1;ratioP1;P1;durP2;ratioP2;P2;SDS_P1;SDS_P2;PMS_P1;PMS_P2;Temp;Humidity;BMP_temperature;BMP_pressure;BME280_temperature;BME280_humidity;BME280_pressure;Samples;Min_cycle;Max_cycle;Signal;HPM_P1;HPM_P2
2023/03/03 06:41:07;;;;;;;;;12.25;11.00;;;;;17.62;36.74;101860.69;5067978;27;45528;-81
2023/03/03 06:43:33;;;;;;;;;7.00;7.00;;;;;18.20;37.57;101873.84;5057086;27;45729;-81
2023/03/03 06:45:59;;;;;;;;;14.00;9.75;;;;;19.03;38.03;101868.97;5064587;28;45841;-79
2023/03/03 06:48:24;;;;;;;;;10.25;9.75;;;;;19.93;37.49;101874.13;5069268;27;45388;-80
2023/03/03 06:50:49;;;;;;;;;9.25;9.25;;;;;20.78;37.77;101886.47;5062841;27;45450;-79
2023/03/03 06:53:17;;;;;;;;;11.00;9.50;;;;;21.55;37.13;101888.47;5068363;27;45499;-79
2023/03/03 06:55:43;;;;;;;;;10.75;9.75;;;;;22.19;36.33;101900.28;5058440;28;45586;-81
2023/03/03 06:58:20;;;;;;;;;12.75;10.75;;;;;22.76;36.35;101905.34;5073655;27;45593;-81
2023/03/03 07:00:59;;;;;;;;;8.50;7.50;;;;;23.24;35.88;101902.94;5067465;27;45437;-78
2023/03/03 07:03:31;;;;;;;;;10.25;9.75;;;;;23.62;35.84;101900.47;5060280;28;47120;-76
2023/03/03 07:05:57;;;;;;;;;8.25;8.25;;;;;23.90;35.41;101897.91;5060010;27;45502;-76
2023/03/03 07:08:23;;;;;;;;;11.50;8.75;;;;;24.19;34.70;101905.19;5060179;28;45693;-76
2023/03/03 07:10:50;;;;;;;;;9.00;9.00;;;;;24.40;34.56;101897.88;5058911;27;45407;-75
2023/03/03 07:13:37;;;;;;;;;9.50;7.50;;;;;24.61;34.26;101908.53;5059924;27;45625;-76
2023/03/03 07:16:10;;;;;;;;;8.75;6.25;;;;;24.78;34.18;101917.78;5058686;27;45447;-75
2023/03/03 07:18:56;;;;;;;;;13.00;11.50;;;;;24.93;33.96;101917.31;5060186;27;45545;-73
2023/03/03 07:21:36;;;;;;;;;10.00;9.00;;;;;25.05;33.71;101920.69;5059374;27;46249;-80
2023/03/03 07:24:23;;;;;;;;;10.25;8.50;;;;;25.13;33.62;101920.78;5060412;28;45878;-81
2023/03/03 07:26:50;;;;;;;;;9.50;9.50;;;;;25.24;33.44;101926.03;5057417;27;46828;-82
2023/03/03 07:29:25;;;;;;;;;10.00;8.75;;;;;25.36;33.21;101932.09;5059822;27;47749;-79
2023/03/03 07:31:54;;;;;;;;;11.67;10.33;;;;;25.46;33.06;101929.31;5061842;27;45945;-79
2023/03/03 07:34:39;;;;;;;;;12.25;10.25;;;;;25.60;33.06;101930.69;5061125;27;46176;-79
2023/03/03 07:37:37;;;;;;;;;10.00;10.00;;;;;25.73;33.15;101922.16;5061631;27;45588;-79
2023/03/03 07:40:26;;;;;;;;;10.67;9.00;;;;;25.90;32.85;101931.31;5070302;27;45750;-80
2023/03/03 07:42:51;;;;;;;;;9.67;8.33;;;;;26.03;32.57;101930.06;5069059;27;45629;-81
2023/03/03 07:45:29;;;;;;;;;8.67;8.67;;;;;26.16;32.83;101935.13;5078428;27;45482;-79
2023/03/03 07:48:23;;;;;;;;;8.00;8.00;;;;;26.28;32.27;101930.31;5075797;27;47076;-77
2023/03/03 07:50:49;;;;;;;;;11.67;10.67;;;;;26.41;32.24;101947.03;5076920;27;47141;-78
2023/03/03 07:53:25;;;;;;;;;11.00;8.33;;;;;26.51;32.73;101946.97;5065728;27;45570;-79
2023/03/03 07:55:51;;;;;;;;;10.33;10.33;;;;;26.60;32.25;101952.47;5045061;28;46088;-79
2023/03/03 07:58:19;;;;;;;;;8.67;7.33;;;;;26.69;32.11;101951.50;5066171;27;45754;-80
2023/03/03 08:00:44;;;;;;;;;8.00;8.00;;;;;26.75;31.74;101950.84;5066685;27;45866;-82
2023/03/03 08:03:16;;;;;;;;;7.00;7.00;;;;;26.79;32.00;101949.53;5064474;27;46114;-79
2023/03/03 08:05:45;;;;;;;;;11.67;11.67;;;;;26.87;31.73;101958.72;5066522;27;45676;-80
2023/03/03 08:08:22;;;;;;;;;11.33;11.33;;;;;26.94;31.84;101959.84;5067311;28;46199;-81
2023/03/03 08:10:51;;;;;;;;;7.00;7.00;;;;;27.01;32.02;101960.03;5063768;28;45985;-80
2023/03/03 08:13:27;;;;;;;;;8.67;7.33;;;;;27.06;31.96;101961.25;5061136;27;45765;-78
2023/03/03 08:16:08;;;;;;;;;8.00;8.00;;;;;27.12;31.96;101973.38;5070964;27;45853;-78
2023/03/03 08:18:37;;;;;;;;;9.00;9.00;;;;;27.17;31.94;101975.59;5064885;28;45538;-77
2023/03/03 08:21:10;;;;;;;;;8.67;8.00;;;;;27.18;31.20;101972.72;5069479;27;45965;-79
2023/03/03 08:23:35;;;;;;;;;10.33;10.00;;;;;27.22;31.22;101975.97;5054899;27;48451;-82
2023/03/03 08:26:00;;;;;;;;;8.00;7.67;;;;;27.25;30.94;101985.69;5050762;27;45560;-81
2023/03/03 08:28:26;;;;;;;;;11.33;9.33;;;;;27.27;31.13;101980.94;5072748;27;45586;-80
2023/03/03 08:30:51;;;;;;;;;49.50;40.00;;;;;27.28;31.36;101985.34;5075589;28;45621;-82
2023/03/03 08:33:17;;;;;;;;;24.25;24.00;;;;;27.16;31.14;101987.50;5075676;27;45857;-80
2023/03/03 08:35:44;;;;;;;;;26.25;26.00;;;;;27.05;30.65;101994.13;5056428;28;45518;-79
2023/03/03 08:38:11;;;;;;;;;8.25;8.00;;;;;27.01;30.96;101984.56;5084458;27;45371;-77
2023/03/03 08:40:37;;;;;;;;;23.25;22.25;;;;;27.01;30.56;101981.84;5073752;28;45614;-79
2023/03/03 08:43:03;;;;;;;;;26.75;22.50;;;;;27.04;31.05;101989.66;5075428;28;45436;-78
2023/03/03 08:45:28;;;;;;;;;24.00;21.25;;;;;27.10;30.79;101989.03;5075122;28;45340;-78
2023/03/03 08:47:54;;;;;;;;;19.50;17.75;;;;;27.15;30.49;101996.72;5074377;28;45491;-77
2023/03/03 08:50:20;;;;;;;;;24.75;21.50;;;;;27.19;30.52;101998.09;5073460;27;45538;-78
2023/03/03 08:52:46;;;;;;;;;20.25;18.25;;;;;27.22;30.74;101995.06;5069055;28;45750;-78
2023/03/03 08:55:12;;;;;;;;;17.33;17.33;;;;;27.25;30.29;102002.88;5059471;28;45428;-78
2023/03/03 08:57:38;;;;;;;;;21.75;19.50;;;;;27.27;30.82;102000.88;5068820;28;45493;-83
2023/03/03 09:00:06;;;;;;;;;19.75;16.75;;;;;27.30;30.47;101994.25;5068045;28;45723;-80
2023/03/03 09:02:31;;;;;;;;;17.33;17.33;;;;;27.32;30.44;101992.19;5069497;28;45764;-81
2023/03/03 09:04:56;;;;;;;;;17.67;17.67;;;;;27.35;30.39;101998.16;5062532;28;45433;-78
2023/03/03 09:07:22;;;;;;;;;20.00;18.67;;;;;27.38;30.71;101994.25;5069708;27;45765;-78
2023/03/03 09:09:47;;;;;;;;;23.67;19.67;;;;;27.43;30.15;102010.97;5051729;28;45817;-77
2023/03/03 09:12:27;;;;;;;;;20.75;16.25;;;;;27.47;30.14;102001.44;5074115;28;46178;-81
2023/03/03 09:14:57;;;;;;;;;18.67;16.00;;;;;27.51;30.16;102018.34;5073555;28;45723;-79
2023/03/03 09:17:28;;;;;;;;;18.75;16.50;;;;;27.53;30.18;102019.03;5073036;28;45339;-84
2023/03/03 09:19:59;;;;;;;;;16.33;16.33;;;;;27.52;30.17;102021.91;5072502;28;45588;-77
2023/03/03 09:22:26;;;;;;;;;13.33;12.00;;;;;27.53;29.80;102020.88;5044042;27;46036;-76
2023/03/03 09:24:55;;;;;;;;;14.67;12.67;;;;;27.49;30.36;102010.31;5074745;28;45411;-76
2023/03/03 09:27:28;;;;;;;;;13.00;13.00;;;;;27.45;29.76;102016.25;5065172;28;45460;-78
2023/03/03 09:29:56;;;;;;;;;12.67;12.00;;;;;27.38;29.70;102010.59;5071945;27;45721;-78
2023/03/03 09:32:38;;;;;;;;;15.00;13.33;;;;;27.31;29.67;102017.75;5062270;28;45493;-79
2023/03/03 09:35:37;;;;;;;;;15.33;13.00;;;;;27.24;29.72;102020.25;5054297;28;45487;-77
2023/03/03 09:38:25;;;;;;;;;14.33;12.67;;;;;27.20;29.37;102027.06;5064397;28;45373;-80
2023/03/03 09:41:08;;;;;;;;;13.67;13.67;;;;;27.20;29.92;102029.78;5065188;28;45825;-80
2023/03/03 09:44:06;;;;;;;;;15.33;13.67;;;;;27.21;29.61;102018.72;5069375;27;46409;-80
2023/03/03 09:46:55;;;;;;;;;14.33;14.33;;;;;27.28;29.38;102032.56;5062342;28;45467;-79
2023/03/03 09:49:34;;;;;;;;;13.00;12.33;;;;;27.34;29.72;102031.06;5066607;28;45677;-80
2023/03/03 09:52:44;;;;;;;;;14.00;12.33;;;;;27.41;29.93;102033.97;5069746;28;45441;-79
2023/03/03 09:55:15;;;;;;;;;14.33;13.33;;;;;27.46;29.17;102028.91;5063646;27;46701;-76
2023/03/03 09:58:07;;;;;;;;;15.00;13.67;;;;;27.47;29.69;102031.44;5071580;27;45442;-75
2023/03/03 10:00:57;;;;;;;;;13.00;11.67;;;;;27.49;29.13;102031.28;5059907;28;45270;-76
2023/03/03 10:04:20;;;;;;;;;14.33;12.67;;;;;27.49;29.58;102039.44;5055116;28;45652;-78
2023/03/03 10:07:22;;;;;;;;;13.67;13.33;;;;;27.50;29.60;102038.44;4990479;28;45500;-77
2023/03/03 10:10:15;;;;;;;;;10.00;10.00;;;;;27.52;29.49;102041.84;4991810;28;45495;-78
2023/03/03 10:12:53;;;;;;;;;12.67;11.67;;;;;27.54;29.13;102041.69;4984315;28;45505;-75
2023/03/03 10:15:29;;;;;;;;;14.33;13.00;;;;;27.56;29.25;102045.97;4989387;28;45522;-77
2023/03/03 10:18:23;;;;;;;;;15.67;14.00;;;;;27.59;29.56;102051.06;4990488;28;46317;-77
2023/03/03 10:21:11;;;;;;;;;13.67;12.67;;;;;27.61;29.19;102060.00;4951310;28;45416;-78
2023/03/03 10:23:53;;;;;;;;;13.33;13.33;;;;;27.64;29.00;102056.09;4876069;29;45622;-78
2023/03/03 10:26:37;;;;;;;;;13.00;13.00;;;;;27.68;29.41;102062.06;4877975;29;45772;-76
2023/03/03 10:29:14;;;;;;;;;19.33;14.33;;;;;27.68;29.45;102065.66;4872950;29;45468;-75
2023/03/03 10:31:48;;;;;;;;;16.00;13.67;;;;;27.69;29.53;102059.16;4875039;29;45610;-78
2023/03/03 10:34:47;;;;;;;;;12.00;12.00;;;;;27.71;29.31;102068.03;4871742;29;45625;-77
2023/03/03 10:37:12;;;;;;;;;18.67;15.33;;;;;27.74;29.03;102072.28;4890935;28;45682;-75
2023/03/03 10:40:12;;;;;;;;;12.67;9.00;;;;;27.75;29.46;102072.13;4932827;28;45536;-75
2023/03/03 10:42:47;;;;;;;;;11.00;10.67;;;;;27.80;29.44;102062.59;4931282;28;45896;-78
2023/03/03 10:45:25;;;;;;;;;11.33;10.67;;;;;27.81;29.49;102067.91;4932129;28;45551;-77
2023/03/03 10:48:06;;;;;;;;;12.00;11.67;;;;;27.84;28.67;102069.44;4931812;28;45609;-78
2023/03/03 10:50:42;;;;;;;;;16.00;15.00;;;;;27.83;28.59;102062.28;4931572;28;46309;-75
2023/03/03 10:53:36;;;;;;;;;20.00;18.00;;;;;27.84;29.32;102058.53;4932829;28;45400;-75
2023/03/03 10:56:14;;;;;;;;;20.00;18.00;;;;;27.80;28.67;102059.88;4931331;28;45462;-75
2023/03/03 10:58:59;;;;;;;;;20.33;17.67;;;;;27.75;28.92;102061.22;4963785;28;45511;-75
2023/03/03 11:01:49;;;;;;;;;17.67;17.67;;;;;27.70;28.38;102068.19;5054291;28;46109;-75
2023/03/03 11:04:28;;;;;;;;;18.67;16.00;;;;;27.64;28.44;102057.94;5062769;28;45393;-75
2023/03/03 11:07:00;;;;;;;;;20.00;15.00;;;;;27.58;28.85;102056.69;5054839;28;45416;-75
2023/03/03 11:09:57;;;;;;;;;15.67;14.33;;;;;27.53;28.80;102061.78;5061052;28;45389;-75
2023/03/03 11:12:35;;;;;;;;;14.33;13.33;;;;;27.49;28.62;102059.41;5061935;28;45537;-75
2023/03/03 11:15:21;;;;;;;;;14.67;13.67;;;;;27.48;28.78;102067.75;5068913;28;45587;-75
2023/03/03 11:17:53;;;;;;;;;16.67;14.33;;;;;27.45;28.31;102055.28;5066842;28;45345;-75
2023/03/03 11:20:37;;;;;;;;;15.67;14.67;;;;;27.44;28.13;102058.19;5072814;28;45459;-75
2023/03/03 11:23:31;;;;;;;;;15.33;14.67;;;;;27.44;28.25;102055.44;5072119;28;46176;-75
2023/03/03 11:26:06;;;;;;;;;16.00;14.00;;;;;27.43;28.13;102051.03;5071764;28;45470;-75
2023/03/03 11:28:46;;;;;;;;;17.67;14.67;;;;;27.42;28.39;102046.59;5067389;28;45320;-75
2023/03/03 11:31:12;;;;;;;;;14.00;12.00;;;;;27.42;28.15;102050.16;5074579;27;45835;-75
2023/03/03 11:34:01;;;;;;;;;14.67;14.67;;;;;27.42;28.20;102049.31;5079897;27;46189;-75
2023/03/03 11:36:39;;;;;;;;;12.33;11.33;;;;;27.39;28.09;102045.06;5042599;28;45447;-75
2023/03/03 11:39:11;;;;;;;;;18.67;17.00;;;;;27.39;28.38;102036.00;5076112;28;45528;-75
2023/03/03 11:42:10;;;;;;;;;15.33;15.33;;;;;27.38;28.30;102032.41;5069402;28;45742;-75
2023/03/03 11:44:43;;;;;;;;;13.33;13.33;;;;;27.38;27.76;102029.69;5071502;27;46440;-75
2023/03/03 11:47:23;;;;;;;;;13.33;12.67;;;;;27.40;28.21;102035.84;5073680;28;45324;-74
2023/03/03 11:50:22;;;;;;;;;15.33;15.33;;;;;27.40;28.10;102032.25;5063794;28;45446;-75
2023/03/03 11:53:31;;;;;;;;;10.00;9.33;;;;;27.38;28.31;102029.69;5075759;28;45483;-75
2023/03/03 11:56:04;;;;;;;;;11.67;11.67;;;;;27.38;27.89;102032.41;5074351;28;45501;-75
2023/03/03 11:58:48;;;;;;;;;16.00;16.00;;;;;27.38;27.50;102026.13;5072581;27;45700;-76
2023/03/03 12:01:21;;;;;;;;;43.75;35.00;;;;;27.38;28.04;102031.56;5065840;28;45500;-89
2023/03/03 12:03:57;;;;;;;;;54.25;45.25;;;;;27.26;27.66;102020.09;5055442;28;45694;-83
2023/03/03 12:06:28;;;;;;;;;49.00;40.00;;;;;26.90;27.16;102011.03;5055080;28;47046;-87
2023/03/03 12:09:08;;;;;;;;;53.75;42.25;;;;;26.56;26.75;102009.94;5070653;28;45581;-86
2023/03/03 12:11:52;;;;;;;;;43.75;35.75;;;;;26.28;27.24;102009.22;5065414;28;45569;-78
2023/03/03 12:14:26;;;;;;;;;35.75;31.75;;;;;26.19;26.73;102010.97;5070256;27;45490;-78
2023/03/03 12:17:10;;;;;;;;;33.50;30.00;;;;;26.22;27.12;102004.34;5070422;28;46097;-79
2023/03/03 12:19:38;;;;;;;;;33.25;29.50;;;;;26.30;26.96;102001.75;5071172;28;45515;-74
2023/03/03 12:22:15;;;;;;;;;34.75;30.50;;;;;26.29;27.17;102002.75;5072939;28;45461;-74
2023/03/03 12:24:46;;;;;;;;;26.25;26.25;;;;;26.34;27.39;101999.56;5069294;28;45514;-75
2023/03/03 12:27:39;;;;;;;;;32.00;27.50;;;;;26.47;27.27;101997.28;5067852;28;46073;-75
2023/03/03 12:30:16;;;;;;;;;32.50;27.50;;;;;26.62;27.41;101988.53;5068058;28;45441;-75
2023/03/03 12:33:04;;;;;;;;;29.50;27.75;;;;;26.82;27.24;101990.03;5072243;28;45532;-76
2023/03/03 12:35:47;;;;;;;;;29.75;28.50;;;;;27.01;27.32;101995.47;5071196;28;45517;-75
2023/03/03 12:38:23;;;;;;;;;26.00;25.75;;;;;27.18;27.71;101991.78;5074718;28;46570;-75
2023/03/03 12:41:33;;;;;;;;;27.75;24.50;;;;;27.34;27.63;101988.28;5063726;27;45274;-78
2023/03/03 12:44:14;;;;;;;;;22.50;22.50;;;;;27.53;26.95;101993.63;4992430;28;45624;-77
2023/03/03 12:46:51;;;;;;;;;27.75;23.50;;;;;27.68;27.70;101996.59;4988497;28;45386;-76
2023/03/03 12:49:16;;;;;;;;;27.00;21.33;;;;;27.79;27.38;101993.53;4988425;28;45448;-75
2023/03/03 12:51:46;;;;;;;;;23.25;20.50;;;;;27.90;27.01;101983.34;4981411;28;45374;-75
2023/03/03 12:54:39;;;;;;;;;22.33;22.00;;;;;27.99;27.69;101991.38;4989836;28;45498;-77
2023/03/03 12:57:13;;;;;;;;;19.75;19.50;;;;;28.09;27.42;101983.03;4989808;28;45457;-78
2023/03/03 12:59:59;;;;;;;;;23.50;20.25;;;;;28.19;26.82;101995.66;4992642;28;46042;-76
2023/03/03 13:02:48;;;;;;;;;19.00;19.00;;;;;28.28;27.48;101981.00;4990904;28;45391;-77
2023/03/03 13:05:26;;;;;;;;;20.67;17.00;;;;;28.36;26.85;101978.25;5003135;28;45355;-75
2023/03/03 13:08:07;;;;;;;;;21.67;17.67;;;;;28.44;26.72;101982.03;4983507;28;45522;-77
2023/03/03 13:10:47;;;;;;;;;18.67;16.00;;;;;28.51;27.17;101977.56;4986447;28;46028;-78
2023/03/03 13:13:41;;;;;;;;;19.00;16.33;;;;;28.54;27.28;101964.41;4974536;28;45493;-78
2023/03/03 13:16:13;;;;;;;;;14.33;13.67;;;;;28.62;26.69;101976.38;4953162;28;45522;-78
2023/03/03 13:18:54;;;;;;;;;15.00;14.33;;;;;28.65;27.58;101971.41;4998989;28;45552;-76
2023/03/03 13:21:25;;;;;;;;;15.00;15.00;;;;;28.71;27.37;101975.31;5014513;28;45586;-76
2023/03/03 13:24:06;;;;;;;;;20.00;17.33;;;;;28.75;26.94;101975.81;5022338;28;45365;-76
2023/03/03 13:26:48;;;;;;;;;17.33;13.67;;;;;28.78;27.61;101968.13;5019122;28;46643;-76
2023/03/03 13:29:32;;;;;;;;;12.67;12.00;;;;;28.82;27.57;101968.66;5030408;28;45408;-76
2023/03/03 13:32:03;;;;;;;;;15.00;15.00;;;;;28.85;27.21;101962.81;5017782;28;46456;-78
2023/03/03 13:34:54;;;;;;;;;16.00;14.67;;;;;28.89;27.13;101953.28;5025036;28;45499;-77
2023/03/03 13:37:26;;;;;;;;;17.67;15.00;;;;;28.94;27.78;101960.97;5020320;28;45606;-75
2023/03/03 13:39:58;;;;;;;;;14.33;14.00;;;;;28.97;27.09;101959.75;5029652;28;45373;-77
2023/03/03 13:42:40;;;;;;;;;15.00;15.00;;;;;29.01;27.29;101956.47;5023868;28;46217;-76
2023/03/03 13:45:17;;;;;;;;;11.67;11.00;;;;;29.06;27.10;101954.06;5023829;28;45504;-76
2023/03/03 13:47:51;;;;;;;;;15.67;14.33;;;;;29.10;27.21;101950.97;5029995;28;46396;-76
2023/03/03 13:50:27;;;;;;;;;17.00;15.33;;;;;29.13;27.17;101950.59;5018273;28;45901;-76
2023/03/03 13:53:18;;;;;;;;;23.00;19.67;;;;;29.14;27.64;101947.69;5024081;28;46913;-80
2023/03/03 13:55:54;;;;;;;;;18.33;16.67;;;;;29.13;27.43;101945.13;5052599;28;45447;-78
2023/03/03 13:58:44;;;;;;;;;23.67;20.33;;;;;29.05;26.82;101941.44;5073203;28;45490;-77
2023/03/03 14:01:26;;;;;;;;;15.67;14.00;;;;;28.95;26.80;101946.25;5053388;28;45473;-77
2023/03/03 14:03:54;;;;;;;;;21.00;19.67;;;;;28.89;27.10;101942.34;5063043;28;45532;-75
2023/03/03 14:06:26;;;;;;;;;19.67;17.00;;;;;28.87;26.89;101940.78;5072019;28;45438;-79
2023/03/03 14:08:54;;;;;;;;;19.00;17.67;;;;;28.87;26.92;101943.50;5073395;28;45453;-78
2023/03/03 14:11:38;;;;;;;;;16.00;16.00;;;;;28.88;27.14;101946.09;5073136;27;45578;-78
2023/03/03 14:14:22;;;;;;;;;15.00;14.00;;;;;28.91;26.93;101951.22;5073347;28;45604;-78
2023/03/03 14:16:52;;;;;;;;;17.00;14.33;;;;;28.90;26.76;101952.22;5054472;28;45400;-76
2023/03/03 14:19:23;;;;;;;;;16.33;16.33;;;;;28.89;26.78;101950.53;5068415;28;45510;-75
2023/03/03 14:22:10;;;;;;;;;17.67;17.00;;;;;28.87;26.54;101955.31;5068748;28;45420;-77
2023/03/03 14:24:58;;;;;;;;;13.67;13.67;;;;;28.85;27.02;101945.59;5066502;28;46218;-77
2023/03/03 14:27:25;;;;;;;;;17.33;15.33;;;;;28.80;26.58;101941.50;5065673;28;45434;-82
2023/03/03 14:29:51;;;;;;;;;14.33;13.00;;;;;28.78;26.88;101943.53;5063559;27;45692;-81
2023/03/03 14:32:24;;;;;;;;;16.00;12.33;;;;;28.77;26.84;101946.47;5053527;28;45341;-80
2023/03/03 14:35:12;;;;;;;;;15.33;14.33;;;;;28.75;27.02;101938.44;5063773;28;46354;-85
2023/03/03 14:37:49;;;;;;;;;11.33;11.33;;;;;28.72;27.24;101930.59;5069761;28;45585;-75
2023/03/03 14:40:17;;;;;;;;;12.67;11.33;;;;;28.72;26.76;101930.59;5069662;28;45432;-81
2023/03/03 14:42:51;;;;;;;;;12.33;11.67;;;;;28.71;26.71;101923.41;5068537;28;45544;-79
2023/03/03 14:45:37;;;;;;;;;12.33;12.33;;;;;28.69;27.11;101930.09;5072028;27;45873;-82
2023/03/03 14:48:23;;;;;;;;;12.67;12.33;;;;;28.65;26.72;101935.06;5069582;28;45432;-79
2023/03/03 14:50:57;;;;;;;;;18.00;16.33;;;;;28.62;27.08;101919.00;5051505;28;45456;-82
2023/03/03 14:53:28;;;;;;;;;10.33;10.33;;;;;28.59;26.91;101913.88;5073859;27;45561;-78
2023/03/03 14:55:54;;;;;;;;;14.33;14.00;;;;;28.57;26.89;101919.50;5071741;28;45376;-84
2023/03/03 14:58:27;;;;;;;;;16.67;14.67;;;;;28.55;27.72;101918.84;5055510;28;45431;-81
2023/03/03 15:01:28;;;;;;;;;11.33;11.33;;;;;28.52;27.40;101920.06;5069123;28;45411;-79
2023/03/03 15:03:59;;;;;;;;;13.33;12.00;;;;;28.50;27.78;101921.25;5073073;27;45454;-78
2023/03/03 15:06:33;;;;;;;;;17.00;16.00;;;;;28.51;27.14;101918.34;5066448;28;45329;-79
2023/03/03 16:21:05;;;;;;;;;14.50;12.75;;;;;19.52;30.75;101946.28;5076375;27;45638;-75
2023/03/03 16:24:05;;;;;;;;;13.75;12.75;;;;;20.09;31.38;101946.63;5083201;27;45489;-77
2023/03/03 16:26:53;;;;;;;;;11.00;11.00;;;;;20.85;31.14;101951.59;5083447;27;45555;-74
2023/03/03 16:29:50;;;;;;;;;12.75;10.50;;;;;21.75;31.12;101949.00;5084740;27;45577;-73
2023/03/03 16:32:31;;;;;;;;;13.50;12.00;;;;;22.55;30.80;101948.66;5081509;27;46198;-74
2023/03/03 16:35:01;;;;;;;;;11.00;10.25;;;;;23.19;30.93;101959.38;5086876;27;45506;-75
2023/03/03 16:37:35;;;;;;;;;12.25;11.00;;;;;23.69;30.24;101953.13;5090258;27;45467;-73
2023/03/03 16:40:27;;;;;;;;;10.25;9.50;;;;;24.19;30.67;101958.59;5088372;27;45517;-72
2023/03/03 16:43:02;;;;;;;;;11.00;10.00;;;;;24.55;30.25;101952.53;5079890;27;45557;-73
2023/03/03 16:45:37;;;;;;;;;11.50;10.00;;;;;24.87;29.93;101951.34;5088369;27;45434;-72
2023/03/03 16:48:28;;;;;;;;;10.33;8.33;;;;;25.16;29.91;101963.94;5084827;27;45407;-72
2023/03/03 16:51:13;;;;;;;;;10.00;10.00;;;;;25.39;29.71;101958.97;5080872;27;45629;-73
2023/03/03 16:54:01;;;;;;;;;9.25;9.25;;;;;25.63;29.58;101965.72;5088679;27;46254;-73
2023/03/03 16:56:52;;;;;;;;;11.33;8.67;;;;;25.82;29.58;101969.31;5090167;27;45348;-73
2023/03/03 16:59:52;;;;;;;;;13.00;11.67;;;;;26.02;29.05;101974.59;5074894;27;45375;-74
2023/03/03 17:02:36;;;;;;;;;10.67;8.67;;;;;26.18;29.26;101979.34;5089835;27;45490;-74
2023/03/03 17:05:19;;;;;;;;;10.67;9.67;;;;;26.29;29.31;101986.44;5080500;27;45481;-72
2023/03/03 17:08:23;;;;;;;;;9.67;9.67;;;;;26.40;28.98;101994.34;5090121;27;45423;-72
2023/03/03 17:11:10;;;;;;;;;8.67;8.67;;;;;26.48;29.15;102001.72;5054821;28;45549;-74
2023/03/03 17:14:04;;;;;;;;;9.33;9.33;;;;;26.54;28.88;102008.41;5063218;28;45567;-74
2023/03/03 17:16:55;;;;;;;;;12.00;9.00;;;;;26.59;28.71;102006.06;5055982;27;45544;-72
2023/03/03 17:19:42;;;;;;;;;10.00;9.00;;;;;26.62;28.58;102013.91;5072899;27;45681;-74
2023/03/03 17:22:23;;;;;;;;;11.00;10.00;;;;;26.68;29.17;102016.00;5062257;27;45598;-74
2023/03/03 17:25:01;;;;;;;;;9.33;8.00;;;;;26.72;28.38;102023.84;5065732;28;45670;-74
2023/03/03 17:27:45;;;;;;;;;11.00;9.00;;;;;26.76;28.59;102027.97;5059926;27;45636;-74
2023/03/03 17:30:13;;;;;;;;;8.00;8.00;;;;;26.80;28.63;102032.94;5058022;27;45536;-75
